Time;durP1;ratioP1;P1;durP2;ratioP2;P2;SDS_P1;SDS_P2;PMS_P1;PMS_P2;Temp;Humidity;BMP_temperature;BMP_pressure;BME280_temperature;BME280_humidity;BME280_pressure;Samples;Min_cycle;Max_cycle;Signal;HPM_P1;HPM_P2
2023/05/22 00:00:19;;;;;;;25.90;11.50;;;;;;;15.29;53.89;99729.68;105690;1253;75009;-70
2023/05/22 00:02:47;;;;;;;18.20;10.90;;;;;;;15.21;53.96;99728.32;105699;1253;63987;-69
2023/05/22 00:05:17;;;;;;;16.40;9.10;;;;;;;15.30;53.87;99736.59;105765;1251;61863;-69
2023/05/22 00:07:44;;;;;;;18.40;10.40;;;;;;;15.12;54.74;99731.25;105948;1256;75604;-73
2023/05/22 00:10:12;;;;;;;17.50;10.80;;;;;;;15.18;54.76;99726.78;105967;1251;70076;-78
2023/05/22 00:12:39;;;;;;;10.80;7.90;;;;;;;15.48;53.33;99729.77;105879;1256;71196;-72
2023/05/22 00:15:07;;;;;;;12.30;9.30;;;;;;;15.30;54.11;99729.62;105885;1251;62071;-70
2023/05/22 00:17:34;;;;;;;14.50;9.20;;;;;;;15.23;54.91;99724.38;105987;1256;62678;-75
2023/05/22 00:20:09;;;;;;;12.80;9.30;;;;;;;15.34;54.33;99729.98;105916;1251;74714;-69
2023/05/22 00:22:37;;;;;;;12.80;8.70;;;;;;;15.21;54.98;99731.31;105734;1251;70459;-70
2023/05/22 00:25:05;;;;;;;13.60;8.90;;;;;;;15.17;55.49;99727.59;105743;1257;73193;-70
2023/05/22 00:27:32;;;;;;;9.60;6.70;;;;;;;15.05;56.02;99728.16;105992;1251;63391;-70
2023/05/22 00:29:59;;;;;;;10.70;7.10;;;;;;;15.22;55.65;99723.66;106098;1256;62317;-71
2023/05/22 00:32:27;;;;;;;16.40;7.70;;;;;;;15.33;54.82;99720.36;105959;1251;74937;-73
2023/05/22 00:34:54;;;;;;;19.10;7.70;;;;;;;15.23;55.17;99726.90;105824;1257;69013;-69
2023/05/22 00:37:21;;;;;;;7.10;6.30;;;;;;;15.39;54.76;99724.81;105518;1261;71536;-72
2023/05/22 00:39:49;;;;;;;11.10;7.40;;;;;;;15.12;55.12;99720.77;105830;1258;61218;-70
2023/05/22 00:42:17;;;;;;;9.90;6.90;;;;;;;11.38;81.30;99705.60;105709;1253;61305;-70
2023/05/22 00:44:44;;;;;;;9.20;7.50;;;;;;;10.55;94.19;99705.52;105745;1253;76055;-71
2023/05/22 00:47:11;;;;;;;10.50;6.20;;;;;;;10.20;98.36;99703.99;105696;1259;68541;-71
2023/05/22 00:49:39;;;;;;;10.00;6.50;;;;;;;10.12;100.00;99703.27;105847;1253;75028;-70
2023/05/22 00:52:07;;;;;;;17.20;8.30;;;;;;;9.97;100.00;99700.95;105727;1256;63805;-69
2023/05/22 00:54:34;;;;;;;9.70;6.40;;;;;;;9.58;100.00;99696.14;105627;1259;61503;-72
2023/05/22 00:57:02;;;;;;;12.30;7.60;;;;;;;9.97;100.00;99696.77;105520;1253;74822;-71
2023/05/22 00:59:30;;;;;;;9.00;6.90;;;;;;;10.75;99.92;99701.77;105614;1261;70948;-70
2023/05/22 01:01:57;;;;;;;11.30;6.90;;;;;;;10.04;99.65;99700.74;105684;1255;75217;-70
2023/05/22 01:04:25;;;;;;;9.90;7.40;;;;;;;9.21;100.00;99695.02;105714;1253;62079;-70
2023/05/22 01:06:53;;;;;;;8.10;7.30;;;;;;;9.62;100.00;99690.44;105672;1253;61240;-71
2023/05/22 01:09:20;;;;;;;10.50;7.90;;;;;;;9.71;100.00;99690.25;105805;1257;76830;-78
2023/05/22 01:11:59;;;;;;;8.40;7.60;;;;;;;9.86;100.00;99693.19;105726;1253;70737;-77
2023/05/22 01:14:33;;;;;;;9.20;7.40;;;;;;;10.30;100.00;99695.10;105887;1258;73768;-68
2023/05/22 01:17:22;;;;;;;9.00;6.70;;;;;;;10.50;100.00;99698.31;105728;1253;62263;-70
2023/05/22 01:19:52;;;;;;;10.50;7.00;;;;;;;10.02;100.00;99695.66;105567;1252;61264;-71
2023/05/22 01:22:39;;;;;;;8.60;7.10;;;;;;;9.53;100.00;99691.41;105953;1256;75266;-71
2023/05/22 01:25:10;;;;;;;10.40;6.90;;;;;;;10.12;100.00;99694.48;105906;1251;69967;-69
2023/05/22 01:27:59;;;;;;;9.00;7.30;;;;;;;10.55;100.00;99690.23;105595;1259;71341;-70
2023/05/22 01:30:49;;;;;;;8.30;7.10;;;;;;;10.26;100.00;99686.55;105593;1254;62348;-70
2023/05/22 01:33:17;;;;;;;10.90;6.40;;;;;;;10.04;100.00;99681.80;105443;1256;62234;-72
2023/05/22 01:35:47;;;;;;;8.50;6.40;;;;;;;10.35;100.00;99683.27;105183;1256;75045;-73
2023/05/22 01:38:14;;;;;;;11.00;7.10;;;;;;;10.52;100.00;99681.70;105397;1264;68619;-73
2023/05/22 01:40:42;;;;;;;9.40;6.80;;;;;;;10.81;100.00;99679.73;106260;1264;74544;-72
2023/05/22 01:43:10;;;;;;;9.30;7.10;;;;;;;10.80;100.00;99678.98;108885;1256;61187;-72
2023/05/22 01:45:37;;;;;;;8.20;7.30;;;;;;;10.75;100.00;99683.44;109006;1256;61221;-71
2023/05/22 01:48:05;;;;;;;7.40;6.50;;;;;;;10.86;99.29;99678.98;108558;1256;75742;-72
2023/05/22 01:50:33;;;;;;;14.60;7.60;;;;;;;11.07;96.82;99682.15;105400;1256;70006;-73
2023/05/22 01:53:17;;;;;;;10.70;6.80;;;;;;;10.20;100.00;99683.79;105354;1261;74652;-72
2023/05/22 01:56:06;;;;;;;16.80;8.20;;;;;;;10.64;100.00;99682.23;105329;1264;62437;-74
2023/05/22 01:58:55;;;;;;;8.50;6.90;;;;;;;10.46;100.00;99679.60;105644;1254;62518;-69
2023/05/22 02:01:22;;;;;;;9.60;7.40;;;;;;;10.69;100.00;99679.49;105807;1254;74669;-68
2023/05/22 02:03:55;;;;;;;10.30;6.70;;;;;;;10.52;100.00;99676.77;105826;1256;69943;-70
2023/05/22 02:06:22;;;;;;;9.50;6.90;;;;;;;9.71;100.00;99669.85;105716;1260;71541;-71
2023/05/22 02:08:49;;;;;;;13.40;7.70;;;;;;;9.71;100.00;99667.60;105539;1254;62357;-71
2023/05/22 02:11:16;;;;;;;11.70;7.60;;;;;;;9.64;100.00;99669.16;105692;1253;61269;-69
2023/05/22 02:13:43;;;;;;;11.60;7.40;;;;;;;9.71;100.00;99666.59;105610;1259;76909;-70
2023/05/22 02:16:10;;;;;;;8.00;7.00;;;;;;;10.01;100.00;99665.98;105803;1258;69438;-70
2023/05/22 02:18:40;;;;;;;8.40;7.40;;;;;;;10.03;100.00;99668.92;105952;1257;72019;-68
2023/05/22 02:21:07;;;;;;;13.40;7.30;;;;;;;9.77;100.00;99667.14;105685;1257;62463;-71
2023/05/22 02:23:35;;;;;;;8.10;7.30;;;;;;;9.35;100.00;99667.64;105813;1254;61998;-70
2023/05/22 02:26:03;;;;;;;14.00;8.30;;;;;;;10.12;100.00;99670.39;105798;1256;77118;-68
2023/05/22 02:28:31;;;;;;;10.30;7.70;;;;;;;10.55;100.00;99672.45;105801;1254;70436;-70
2023/05/22 02:30:58;;;;;;;12.40;7.40;;;;;;;10.52;100.00;99670.60;105707;1258;71614;-75
2023/05/22 02:33:28;;;;;;;11.70;7.30;;;;;;;9.15;100.00;99665.14;105775;1257;61161;-72
2023/05/22 02:35:55;;;;;;;11.10;9.10;;;;;;;9.54;100.00;99664.71;105700;1254;61317;-70
2023/05/22 02:38:23;;;;;;;10.40;7.40;;;;;;;9.12;100.00;99663.30;105628;1252;76349;-69
2023/05/22 02:40:51;;;;;;;9.10;7.20;;;;;;;9.80;100.00;99671.11;105820;1254;70827;-72
2023/05/22 02:43:18;;;;;;;9.30;6.80;;;;;;;10.07;100.00;99670.15;105818;1256;71832;-73
2023/05/22 02:45:45;;;;;;;16.40;8.30;;;;;;;10.19;100.00;99662.43;105638;1254;61480;-68
2023/05/22 02:48:12;;;;;;;8.60;7.50;;;;;;;10.39;100.00;99664.27;105833;1254;61245;-70
2023/05/22 02:50:39;;;;;;;11.80;7.70;;;;;;;10.75;100.00;99668.66;105758;1254;76076;-70
2023/05/22 02:53:07;;;;;;;9.00;6.60;;;;;;;11.00;100.00;99671.96;105794;1256;68925;-74
2023/05/22 02:55:34;;;;;;;8.90;7.00;;;;;;;11.33;100.00;99673.56;105794;1256;72823;-71
2023/05/22 02:58:02;;;;;;;12.20;6.60;;;;;;;11.80;99.75;99676.26;105816;1253;63242;-68
2023/05/22 03:00:30;;;;;;;14.30;6.60;;;;;;;12.20;96.03;99678.35;105533;1253;61327;-71
2023/05/22 03:02:57;;;;;;;9.80;6.20;;;;;;;12.52;92.78;99680.96;105571;1254;74622;-71
2023/05/22 03:05:24;;;;;;;12.50;5.90;;;;;;;12.76;90.45;99683.59;105965;1257;70647;-72
2023/05/22 03:07:52;;;;;;;18.50;6.80;;;;;;;13.03;87.81;99692.88;105826;1254;72343;-71
2023/05/22 03:10:21;;;;;;;15.30;6.20;;;;;;;13.44;84.52;99688.79;105809;1258;63423;-70
2023/05/22 03:12:50;;;;;;;12.90;6.10;;;;;;;13.74;82.02;99692.73;105607;1260;61373;-72
2023/05/22 03:15:18;;;;;;;8.00;5.60;;;;;;;14.05;79.59;99691.18;105269;1256;76936;-72
2023/05/22 03:17:45;;;;;;;9.50;6.70;;;;;;;14.40;77.18;99692.65;105677;1261;70456;-73
2023/05/22 03:20:15;;;;;;;12.60;6.60;;;;;;;14.36;77.63;99702.16;105328;1260;71741;-72
2023/05/22 03:22:43;;;;;;;16.90;7.80;;;;;;;12.11;97.81;99690.73;105301;1260;64087;-73
2023/05/22 03:25:10;;;;;;;19.20;8.80;;;;;;;12.07;99.90;99688.88;105360;1263;61752;-70
2023/05/22 03:27:38;;;;;;;14.80;9.00;;;;;;;12.20;99.81;99691.54;105391;1261;76831;-70
2023/05/22 03:30:07;;;;;;;10.70;7.50;;;;;;;12.40;99.36;99692.23;105306;1260;70732;-69
2023/05/22 03:32:36;;;;;;;15.10;8.30;;;;;;;13.04;88.93;99695.53;105266;1262;74026;-70
2023/05/22 03:35:05;;;;;;;23.10;9.00;;;;;;;14.57;74.58;99700.21;105376;1262;61254;-70
2023/05/22 03:37:32;;;;;;;11.30;8.30;;;;;;;14.87;70.16;99699.77;105382;1264;62238;-72
2023/05/22 03:39:59;;;;;;;16.00;10.00;;;;;;;15.37;65.20;99705.02;105297;1259;76972;-72
2023/05/22 03:42:28;;;;;;;10.00;8.20;;;;;;;15.51;62.91;99704.86;105449;1263;69438;-73
2023/05/22 03:44:56;;;;;;;14.70;8.90;;;;;;;15.74;60.89;99705.89;105634;1256;74564;-73
2023/05/22 03:47:24;;;;;;;11.90;7.70;;;;;;;16.06;58.49;99705.77;105729;1259;61259;-72
2023/05/22 03:49:51;;;;;;;13.90;9.40;;;;;;;16.09;57.78;99708.98;105426;1256;61904;-73
2023/05/22 03:52:18;;;;;;;18.90;9.60;;;;;;;16.37;55.74;99713.17;105579;1256;73659;-73
2023/05/22 03:54:45;;;;;;;20.30;10.30;;;;;;;16.40;56.13;99713.14;105752;1256;70959;-72
2023/05/22 03:57:15;;;;;;;;;;;;;;;16.46;55.66;99708.85;105778;1260;73457;-73
2023/05/22 03:59:42;;;;;;;17.90;9.00;;;;;;;16.63;54.61;99712.00;106025;1257;62564;-72
2023/05/22 04:02:11;;;;;;;17.90;9.60;;;;;;;16.81;53.63;99708.05;106140;1256;61285;-73
2023/05/22 04:04:39;;;;;;;20.30;9.50;;;;;;;17.08;53.30;99707.98;106133;1252;75619;-73
2023/05/22 04:07:12;;;;;;;20.60;10.00;;;;;;;17.23;52.22;99709.33;106055;1259;67618;-72
2023/05/22 04:09:39;;;;;;;17.10;10.20;;;;;;;17.38;52.90;99709.36;106068;1256;73623;-72
2023/05/22 04:12:07;;;;;;;19.60;11.00;;;;;;;17.66;52.28;99707.19;105960;1254;62082;-72
2023/05/22 04:14:34;;;;;;;12.60;8.00;;;;;;;17.88;50.93;99706.80;105701;1254;61253;-73
2023/05/22 04:17:01;;;;;;;10.60;7.10;;;;;;;17.89;51.10;99705.91;105881;1260;76294;-74
2023/05/22 04:19:28;;;;;;;10.00;7.00;;;;;;;18.33;49.87;99707.33;105802;1255;70512;-71
2023/05/22 04:21:57;;;;;;;16.10;7.10;;;;;;;18.51;49.31;99704.09;105778;1256;74722;-71
2023/05/22 04:24:24;;;;;;;14.60;7.30;;;;;;;18.66;49.02;99705.71;105765;1256;62565;-73
2023/05/22 04:26:51;;;;;;;12.60;7.40;;;;;;;19.00;48.04;99703.02;105728;1261;61628;-73
2023/05/22 04:29:21;;;;;;;10.30;7.30;;;;;;;19.47;46.93;99707.35;105737;1256;75085;-73
2023/05/22 04:31:48;;;;;;;11.40;7.10;;;;;;;19.75;46.29;99710.98;105791;1260;70008;-74
2023/05/22 04:34:15;;;;;;;9.20;6.60;;;;;;;19.87;46.05;99711.39;105742;1259;74349;-73
2023/05/22 04:36:43;;;;;;;14.10;8.20;;;;;;;20.20;45.35;99711.77;105708;1256;62114;-73
2023/05/22 04:39:12;;;;;;;8.80;6.60;;;;;;;20.42;45.01;99714.11;105861;1257;61440;-73
2023/05/22 04:41:40;;;;;;;11.00;7.50;;;;;;;20.73;44.41;99716.46;105806;1260;76807;-75
2023/05/22 04:44:07;;;;;;;11.10;6.80;;;;;;;21.02;43.75;99713.73;105803;1261;69855;-73
2023/05/22 04:46:34;;;;;;;12.30;6.80;;;;;;;21.43;43.30;99714.92;105727;1258;74219;-74
2023/05/22 04:49:02;;;;;;;15.30;7.40;;;;;;;21.84;42.08;99719.30;105798;1252;61400;-74
2023/05/22 04:51:30;;;;;;;17.60;5.80;;;;;;;22.09;41.58;99717.16;106079;1257;61411;-75
2023/05/22 04:53:57;;;;;;;12.80;6.30;;;;;;;22.29;40.54;99719.87;106089;1256;76863;-73
2023/05/22 04:56:28;;;;;;;8.70;6.40;;;;;;;22.00;40.41;99717.78;106126;1257;67526;-74
2023/05/22 04:59:04;;;;;;;9.80;6.50;;;;;;;22.19;39.80;99721.58;105938;1260;71605;-75
2023/05/22 05:01:33;;;;;;;11.20;5.70;;;;;;;22.40;39.70;99721.25;105957;1260;61365;-73
2023/05/22 05:04:02;;;;;;;14.40;6.30;;;;;;;22.67;38.88;99720.14;105810;1259;61192;-77
2023/05/22 05:06:29;;;;;;;11.50;6.50;;;;;;;22.72;38.82;99719.25;105817;1256;73936;-73
2023/05/22 05:08:56;;;;;;;7.00;5.20;;;;;;;22.58;38.97;99713.08;105701;1257;70569;-75
2023/05/22 05:11:24;;;;;;;7.90;5.30;;;;;;;22.59;38.32;99712.95;105718;1260;73714;-74
2023/05/22 05:13:51;;;;;;;13.60;6.60;;;;;;;22.83;38.12;99714.51;105730;1257;63372;-73
2023/05/22 05:16:18;;;;;;;6.90;5.40;;;;;;;23.03;37.92;99710.31;105771;1260;61340;-75
2023/05/22 05:18:45;;;;;;;11.90;5.10;;;;;;;23.16;36.87;99711.19;105656;1262;76984;-73
2023/05/22 05:21:12;;;;;;;6.10;4.70;;;;;;;23.29;35.88;99718.30;105729;1258;71757;-73
2023/05/22 05:23:40;;;;;;;12.00;4.50;;;;;;;23.34;36.25;99718.19;105722;1258;75208;-73
2023/05/22 05:26:07;;;;;;;6.70;4.20;;;;;;;23.05;36.46;99722.84;105528;1261;62368;-74
2023/05/22 05:28:36;;;;;;;6.70;4.30;;;;;;;23.23;36.26;99725.30;105750;1262;61384;-72
2023/05/22 05:31:06;;;;;;;7.50;5.40;;;;;;;23.19;36.35;99723.65;105781;1257;75274;-73
2023/05/22 05:34:07;;;;;;;9.10;5.30;;;;;;;23.69;36.13;99722.34;105711;1261;69372;-73
2023/05/22 05:37:09;;;;;;;13.00;5.10;;;;;;;23.94;35.54;99725.27;105697;1254;72794;-74
2023/05/22 05:39:37;;;;;;;9.00;4.70;;;;;;;23.69;35.74;99725.18;105987;1255;62585;-74
2023/05/22 05:42:06;;;;;;;5.70;3.80;;;;;;;23.70;35.44;99717.55;106043;1255;62240;-72
2023/05/22 05:44:33;;;;;;;5.20;4.50;;;;;;;23.67;35.14;99719.77;105892;1254;76327;-82
2023/05/22 05:47:01;;;;;;;8.90;4.60;;;;;;;23.88;34.88;99716.45;105887;1257;69684;-77
2023/05/22 05:49:28;;;;;;;12.30;5.10;;;;;;;24.08;35.15;99716.96;105991;1256;71446;-74
2023/05/22 05:51:56;;;;;;;9.80;4.70;;;;;;;24.34;34.82;99717.61;106075;1254;62540;-74
2023/05/22 05:54:25;;;;;;;7.90;4.30;;;;;;;24.52;34.80;99715.61;106048;1257;61367;-73
2023/05/22 05:56:54;;;;;;;8.20;4.60;;;;;;;24.94;33.68;99715.34;105917;1257;76951;-74
2023/05/22 05:59:21;;;;;;;12.90;4.50;;;;;;;25.31;32.97;99718.83;106032;1258;70505;-71
2023/05/22 06:02:17;;;;;;;11.80;3.90;;;;;;;25.03;32.32;99717.64;105893;1255;74412;-71
2023/05/22 06:04:47;;;;;;;7.30;3.60;;;;;;;24.74;32.51;99718.67;105743;1263;61774;-72
2023/05/22 06:07:16;;;;;;;4.80;3.40;;;;;;;24.85;32.14;99713.51;105938;1257;61206;-74
2023/05/22 06:09:45;;;;;;;3.30;3.00;;;;;;;24.70;31.73;99711.31;105749;1259;74618;-73
2023/05/22 06:12:20;;;;;;;5.90;3.20;;;;;;;25.03;31.44;99710.36;105835;1253;70525;-74
2023/05/22 06:14:47;;;;;;;4.90;3.20;;;;;;;25.37;31.10;99713.88;105778;1260;74806;-74
2023/05/22 06:17:15;;;;;;;3.20;2.90;;;;;;;25.54;31.13;99713.63;105997;1256;61755;-71
2023/05/22 06:19:42;;;;;;;6.80;3.30;;;;;;;25.58;30.69;99714.38;105704;1259;62502;-75
2023/05/22 06:22:10;;;;;;;5.30;2.80;;;;;;;25.61;30.18;99718.77;105681;1259;75253;-79
2023/05/22 06:24:38;;;;;;;4.80;3.10;;;;;;;25.73;30.17;99717.55;106905;1254;69265;-72
2023/05/22 06:27:09;;;;;;;4.90;3.20;;;;;;;25.64;30.09;99714.85;107017;1260;73676;-72
2023/05/22 06:29:37;;;;;;;5.40;3.70;;;;;;;25.33;30.26;99712.11;105700;1260;61340;-74
2023/05/22 06:32:05;;;;;;;;;;;;;;;25.36;30.46;99711.08;105878;1262;61724;-73
2023/05/22 06:34:32;;;;;;;10.20;3.20;;;;;;;25.23;30.84;99711.14;105818;1260;76633;-75
2023/05/22 06:37:02;;;;;;;8.70;3.30;;;;;;;25.53;30.26;99710.94;105691;1262;69337;-77
2023/05/22 06:39:33;;;;;;;3.40;3.10;;;;;;;25.42;30.12;99708.08;105714;1261;73580;-74
2023/05/22 06:42:12;;;;;;;4.20;2.90;;;;;;;25.51;30.01;99707.44;105704;1263;61408;-74
2023/05/22 06:44:58;;;;;;;5.90;3.10;;;;;;;25.35;29.60;99709.66;105751;1260;62425;-74
2023/05/22 06:47:32;;;;;;;5.10;3.30;;;;;;;25.36;29.71;99712.15;105724;1260;75644;-73
2023/05/22 06:49:59;;;;;;;3.80;3.20;;;;;;;25.40;29.76;99715.00;105616;1261;69929;-73
2023/05/22 06:52:26;;;;;;;8.00;3.30;;;;;;;25.60;29.48;99714.52;105527;1261;74001;-73
2023/05/22 06:54:54;;;;;;;5.00;3.10;;;;;;;25.88;29.41;99717.55;105617;1268;61542;-73
2023/05/22 06:57:22;;;;;;;5.90;3.30;;;;;;;25.91;29.29;99715.43;105726;1263;61275;-74
2023/05/22 06:59:50;;;;;;;3.70;3.10;;;;;;;26.18;28.79;99710.73;105875;1254;75703;-73
2023/05/22 07:02:35;;;;;;;7.60;3.70;;;;;;;26.53;28.38;99709.38;105625;1259;70589;-73
2023/05/22 07:05:18;;;;;;;4.00;3.40;;;;;;;26.83;28.36;99708.80;105585;1263;71336;-74
2023/05/22 07:07:52;;;;;;;10.70;3.10;;;;;;;26.83;28.10;99704.19;105402;1269;62244;-74
2023/05/22 07:10:20;;;;;;;8.80;3.40;;;;;;;26.86;27.97;99707.08;105349;1264;61918;-74
2023/05/22 07:12:47;;;;;;;7.20;2.70;;;;;;;27.16;27.40;99712.29;105334;1263;76134;-71
2023/05/22 07:15:14;;;;;;;5.00;3.10;;;;;;;27.17;27.25;99710.67;105268;1272;71147;-80
2023/05/22 07:17:46;;;;;;;5.90;2.80;;;;;;;27.16;27.11;99708.13;105188;1260;72937;-72
2023/05/22 07:20:14;;;;;;;4.50;2.60;;;;;;;27.01;27.46;99704.81;105627;1262;61313;-74
2023/05/22 07:22:46;;;;;;;11.00;3.30;;;;;;;26.39;27.86;99700.33;105744;1262;61999;-73
2023/05/22 07:25:14;;;;;;;9.60;3.40;;;;;;;26.49;28.06;99703.06;105574;1257;76594;-74
2023/05/22 07:27:42;;;;;;;4.60;2.80;;;;;;;25.98;28.26;99704.71;105779;1257;69112;-76
2023/05/22 07:30:11;;;;;;;3.60;2.50;;;;;;;25.54;28.71;99698.23;106277;1257;73842;-72
2023/05/22 07:32:39;;;;;;;5.50;3.20;;;;;;;25.98;28.84;99702.34;108901;1256;61508;-73
2023/05/22 07:35:07;;;;;;;4.80;2.90;;;;;;;26.37;28.20;99705.43;109051;1256;60435;-72
2023/05/22 07:37:35;;;;;;;8.30;3.00;;;;;;;26.56;27.99;99710.55;108197;1259;77315;-72
2023/05/22 07:40:06;;;;;;;6.30;3.00;;;;;;;27.15;27.60;99710.85;105799;1253;70248;-76
2023/05/22 07:42:34;;;;;;;5.80;2.60;;;;;;;27.72;27.30;99713.59;105851;1259;73863;-71
2023/05/22 07:45:01;;;;;;;3.10;2.50;;;;;;;28.14;26.44;99712.77;105899;1258;61284;-75
2023/05/22 07:47:28;;;;;;;6.70;2.40;;;;;;;28.19;25.03;99711.77;105830;1259;61666;-71
2023/05/22 07:49:56;;;;;;;5.00;2.30;;;;;;;28.36;25.17;99708.73;105605;1261;76721;-74
2023/05/22 07:52:23;;;;;;;4.30;2.60;;;;;;;28.01;25.35;99704.75;105800;1254;70121;-68
2023/05/22 07:54:50;;;;;;;3.80;2.70;;;;;;;27.79;25.59;99704.58;105930;1254;72820;-73
2023/05/22 07:57:17;;;;;;;4.10;2.30;;;;;;;27.85;25.29;99706.89;105902;1258;62002;-74
2023/05/22 07:59:46;;;;;;;;;;;;;;;28.29;25.00;99703.01;105823;1258;61277;-72
2023/05/22 08:02:13;;;;;;;;;;;;;;;28.00;24.98;99697.31;105568;1258;75755;-73
2023/05/22 08:04:40;;;;;;;4.40;2.70;;;;;;;27.80;24.97;99691.13;105794;1258;69595;-71
2023/05/22 08:07:07;;;;;;;6.40;2.70;;;;;;;27.89;24.62;99695.56;105939;1255;74915;-69
2023/05/22 08:09:35;;;;;;;3.10;2.00;;;;;;;27.82;24.84;99695.83;105811;1253;61666;-73
2023/05/22 08:12:02;;;;;;;2.70;2.20;;;;;;;27.80;24.64;99703.11;105839;1257;61427;-72
2023/05/22 08:14:29;;;;;;;8.40;2.30;;;;;;;27.59;25.06;99698.28;105719;1258;73611;-72
2023/05/22 08:16:57;;;;;;;2.80;2.50;;;;;;;27.66;24.85;99700.01;105776;1254;70575;-72
2023/05/22 08:19:25;;;;;;;5.90;2.30;;;;;;;28.02;24.72;99702.32;105825;1257;73506;-74
2023/05/22 08:21:56;;;;;;;4.90;2.10;;;;;;;27.84;24.55;99700.04;105748;1259;61569;-73
2023/05/22 08:24:27;;;;;;;4.50;2.20;;;;;;;27.81;24.93;99697.67;105897;1254;62393;-71
2023/05/22 08:26:55;;;;;;;2.70;2.30;;;;;;;27.47;24.76;99694.60;105704;1259;76877;-72
2023/05/22 08:29:23;;;;;;;8.80;2.90;;;;;;;27.87;24.97;99690.55;105859;1255;70724;-72
2023/05/22 08:31:51;;;;;;;5.00;2.50;;;;;;;28.16;24.78;99688.93;106006;1256;73802;-75
2023/05/22 08:34:18;;;;;;;;;;;;;;;28.16;24.13;99690.27;105823;1259;61440;-71
2023/05/22 08:36:46;;;;;;;;;;;;;;;28.12;23.54;99693.83;105839;1257;61141;-74
2023/05/22 08:39:13;;;;;;;2.80;2.20;;;;;;;27.89;24.27;99694.52;105819;1253;76369;-72
2023/05/22 08:41:42;;;;;;;4.70;2.40;;;;;;;27.71;24.45;99699.77;105732;1257;69856;-71
2023/05/22 08:44:12;;;;;;;4.60;2.60;;;;;;;27.71;24.15;99698.45;105851;1252;73800;-71
2023/05/22 08:46:40;;;;;;;5.40;2.40;;;;;;;28.18;23.78;99697.23;105873;1260;61228;-77
2023/05/22 08:49:26;;;;;;;8.80;2.30;;;;;;;28.50;23.51;99688.39;105617;1263;62426;-74
2023/05/22 08:51:55;;;;;;;4.60;2.70;;;;;;;28.63;23.73;99693.95;105629;1264;75214;-75
2023/05/22 08:54:22;;;;;;;2.60;2.20;;;;;;;28.47;23.57;99691.17;105824;1262;68867;-71
2023/05/22 08:56:51;;;;;;;5.10;2.60;;;;;;;28.59;23.43;99694.27;105629;1264;72420;-72
2023/05/22 08:59:23;;;;;;;5.40;2.20;;;;;;;28.31;23.74;99690.90;105516;1257;62310;-76
2023/05/22 09:01:51;;;;;;;2.40;2.20;;;;;;;28.37;23.79;99691.02;105724;1260;62303;-73
2023/05/22 09:04:21;;;;;;;10.10;2.40;;;;;;;28.42;23.67;99686.76;105698;1255;73352;-72
2023/05/22 09:06:49;;;;;;;4.60;2.40;;;;;;;29.03;23.87;99688.58;105609;1261;151616;-70
2023/05/22 09:09:16;;;;;;;3.90;2.40;;;;;;;29.24;22.94;99690.61;105508;1257;74158;-73
2023/05/22 09:11:44;;;;;;;8.90;2.50;;;;;;;29.38;23.28;99689.27;105797;1257;61290;-71
2023/05/22 09:14:11;;;;;;;4.00;2.50;;;;;;;29.97;23.37;99689.73;105596;1259;61345;-73
2023/05/22 09:16:45;;;;;;;2.90;2.10;;;;;;;30.21;22.62;99688.99;105679;1261;77019;-72
2023/05/22 09:19:14;;;;;;;7.80;2.30;;;;;;;29.49;23.18;99682.04;105827;1260;72056;-72
2023/05/22 09:21:43;;;;;;;3.40;2.50;;;;;;;28.81;23.85;99681.41;105640;1259;72494;-72
2023/05/22 09:24:10;;;;;;;3.80;2.00;;;;;;;29.03;23.62;99676.02;105634;1262;61269;-74
2023/05/22 09:26:38;;;;;;;4.40;2.20;;;;;;;28.92;23.54;99679.91;105355;1256;62266;-70
2023/05/22 09:29:06;;;;;;;;;;;;;;;29.24;23.03;99683.97;105490;1261;76871;-72
2023/05/22 09:31:42;;;;;;;8.10;2.20;;;;;;;29.30;22.70;99682.14;105579;1260;69699;-75
2023/05/22 09:34:12;;;;;;;;;;;;;;;29.83;22.17;99680.98;106407;1260;72803;-71
2023/05/22 09:36:40;;;;;;;6.60;2.30;;;;;;;29.59;22.96;99669.35;105756;1274;61322;-74
2023/05/22 09:39:08;;;;;;;6.50;2.20;;;;;;;29.38;23.55;99671.25;105279;1265;61339;-72
2023/05/22 09:41:36;;;;;;;;;;;;;;;29.20;23.21;99665.11;105249;1264;75809;-73
2023/05/22 09:44:13;;;;;;;2.70;2.30;;;;;;;29.08;23.55;99666.94;105384;1264;69056;-72
2023/05/22 09:46:45;;;;;;;3.80;2.20;;;;;;;29.40;23.17;99660.77;105316;1263;74306;-68
2023/05/22 09:49:12;;;;;;;5.70;2.40;;;;;;;29.37;22.95;99664.14;105368;1257;61238;-73
2023/05/22 09:51:43;;;;;;;2.40;1.90;;;;;;;29.53;23.05;99658.23;105631;1258;61639;-74
2023/05/22 09:54:10;;;;;;;3.40;2.10;;;;;;;29.82;22.39;99658.38;105479;1263;75474;-73
2023/05/22 09:56:38;;;;;;;3.40;2.10;;;;;;;30.25;22.21;99659.92;105727;1260;69178;-72
2023/05/22 09:59:08;;;;;;;4.10;2.10;;;;;;;30.54;22.06;99656.50;105524;1258;75186;-73
2023/05/22 10:01:37;;;;;;;7.00;2.30;;;;;;;30.60;21.81;99653.30;105340;1265;61578;-76
2023/05/22 10:04:05;;;;;;;5.60;1.90;;;;;;;30.67;21.57;99652.23;105729;1257;62690;-74
2023/05/22 10:06:33;;;;;;;;;;;;;;;30.95;20.79;99654.14;105714;1260;76404;-74
2023/05/22 10:09:04;;;;;;;5.50;1.80;;;;;;;30.91;20.52;99649.14;105812;1260;70462;-75
2023/05/22 10:11:32;;;;;;;28.20;3.80;;;;;;;30.40;20.79;99650.15;105742;1258;74353;-75
2023/05/22 10:14:00;;;;;;;;;;;;;;;29.99;20.71;99647.69;105829;1254;62271;-74
2023/05/22 10:16:27;;;;;;;3.70;2.00;;;;;;;29.67;21.41;99642.34;105714;1255;61424;-73
2023/05/22 10:18:54;;;;;;;5.00;2.40;;;;;;;29.38;21.98;99640.38;105890;1257;76762;-71
2023/05/22 10:21:22;;;;;;;4.20;2.20;;;;;;;29.16;22.07;99638.48;105698;1261;67385;-76
2023/05/22 10:23:49;;;;;;;2.60;2.10;;;;;;;29.50;21.48;99642.48;105771;1260;72049;-75
2023/05/22 10:26:16;;;;;;;3.10;2.00;;;;;;;29.99;20.70;99647.39;105833;1257;61534;-75
2023/05/22 10:28:46;;;;;;;4.00;2.40;;;;;;;30.08;20.85;99644.29;105749;1264;62235;-76
2023/05/22 10:31:24;;;;;;;7.10;2.90;;;;;;;30.27;20.84;99637.86;105835;1254;74770;-74
2023/05/22 10:34:29;;;;;;;3.00;1.90;;;;;;;30.42;20.64;99638.23;105651;1260;70996;-71
2023/05/22 10:37:02;;;;;;;6.30;2.00;;;;;;;30.70;20.28;99635.48;105762;1257;74109;-75
2023/05/22 10:39:47;;;;;;;5.90;2.00;;;;;;;30.92;20.74;99626.48;105776;1256;61379;-76
2023/05/22 10:42:15;;;;;;;2.30;2.00;;;;;;;30.53;21.22;99627.12;105723;1260;61372;-73
2023/05/22 10:44:42;;;;;;;2.70;2.00;;;;;;;29.89;21.65;99629.19;105684;1258;75904;-74
2023/05/22 10:47:11;;;;;;;18.50;2.40;;;;;;;29.58;21.95;99622.96;105747;1257;69990;-75
2023/05/22 10:49:43;;;;;;;2.90;2.20;;;;;;;29.75;21.74;99618.32;105727;1261;73594;-76
2023/05/22 10:52:10;;;;;;;7.60;2.80;;;;;;;29.60;22.08;99616.67;105861;1259;61331;-76
2023/05/22 10:54:40;;;;;;;5.00;2.50;;;;;;;29.57;22.31;99613.94;106027;1251;61326;-77
2023/05/22 10:57:16;;;;;;;3.70;1.90;;;;;;;29.38;22.43;99606.48;106172;1251;76280;-72
2023/05/22 10:59:46;;;;;;;4.80;2.20;;;;;;;29.07;22.55;99609.61;106010;1253;70662;-77
2023/05/22 11:02:20;;;;;;;6.30;2.70;;;;;;;29.15;22.23;99606.39;105907;1257;73679;-71
2023/05/22 11:04:48;;;;;;;2.50;2.30;;;;;;;29.34;22.29;99601.94;105967;1253;61331;-76
2023/05/22 11:07:15;;;;;;;7.50;2.80;;;;;;;29.85;21.98;99600.46;105886;1253;61369;-71
2023/05/22 11:09:44;;;;;;;2.10;1.90;;;;;;;30.08;21.86;99603.40;105857;1254;75042;-74
2023/05/22 11:12:25;;;;;;;2.90;2.10;;;;;;;30.19;21.35;99597.64;105958;1253;70765;-74
2023/05/22 11:14:55;;;;;;;4.30;2.20;;;;;;;30.06;21.48;99601.73;105962;1255;73445;-72
2023/05/22 11:17:24;;;;;;;4.30;2.20;;;;;;;30.15;21.77;99589.39;105951;1259;61721;-73
2023/05/22 11:20:19;;;;;;;2.90;2.20;;;;;;;30.45;22.35;99590.29;106045;1254;61409;-72
2023/05/22 11:22:54;;;;;;;2.80;2.30;;;;;;;31.14;20.93;99586.34;105388;1261;76227;-73
2023/05/22 11:25:21;;;;;;;5.20;2.50;;;;;;;31.21;21.12;99584.92;105449;1261;71425;-74
2023/05/22 11:27:48;;;;;;;7.80;2.60;;;;;;;31.33;20.68;99584.79;105397;1261;74239;-72
2023/05/22 11:30:16;;;;;;;2.80;2.30;;;;;;;30.85;20.66;99577.20;105444;1264;61406;-76
2023/05/22 11:32:43;;;;;;;3.10;2.40;;;;;;;30.86;20.73;99580.13;105515;1260;61425;-75
2023/05/22 11:35:15;;;;;;;3.70;2.30;;;;;;;31.02;20.37;99575.29;105353;1261;76871;-74